Time;durP1;ratioP1;P1;durP2;ratioP2;P2;SDS_P1;SDS_P2;PMS_P1;PMS_P2;Temp;Humidity;BMP_temperature;BMP_pressure;BME280_temperature;BME280_humidity;BME280_pressure;Samples;Min_cycle;Max_cycle;Signal;HPM_P1;HPM_P2
2022/10/11 00:02:24;;;;;;;9.33;4.50;;;;;;;9.73;100.00;100422.57;1721929;82;21092;-73
2022/10/11 00:04:52;;;;;;;6.67;4.15;;;;;;;9.72;100.00;100425.59;1722597;82;21057;-74
2022/10/11 00:07:19;;;;;;;5.97;4.00;;;;;;;9.74;100.00;100429.39;1696995;82;21027;-74
2022/10/11 00:09:46;;;;;;;7.65;4.20;;;;;;;9.71;100.00;100443.22;1717923;82;21551;-73
2022/10/11 00:12:13;;;;;;;4.33;3.65;;;;;;;9.77;100.00;100438.25;1738076;82;21066;-73
2022/10/11 00:14:40;;;;;;;11.65;5.22;;;;;;;9.76;100.00;100446.42;1734852;83;21006;-73
2022/10/11 00:17:07;;;;;;;15.80;6.95;;;;;;;9.77;100.00;100444.67;1726042;82;21073;-73
2022/10/11 00:19:36;;;;;;;8.75;4.58;;;;;;;9.76;100.00;100450.27;1710043;82;21088;-73
2022/10/11 00:22:04;;;;;;;5.22;3.65;;;;;;;9.77;100.00;100462.24;1704368;82;21093;-73
2022/10/11 00:24:31;;;;;;;4.37;3.42;;;;;;;9.81;100.00;100460.36;1709751;82;21046;-73
2022/10/11 00:26:59;;;;;;;5.25;3.15;;;;;;;9.74;100.00;100467.50;1703347;82;21058;-73
2022/10/11 00:29:26;;;;;;;6.05;3.45;;;;;;;9.77;100.00;100474.23;1688064;82;21141;-73
2022/10/11 00:31:54;;;;;;;5.17;3.30;;;;;;;9.80;100.00;100476.24;1699170;82;21057;-73
2022/10/11 00:34:22;;;;;;;5.15;2.92;;;;;;;9.74;100.00;100470.06;1700054;82;21054;-72
2022/10/11 00:36:49;;;;;;;6.22;3.42;;;;;;;9.69;100.00;100466.01;1712630;82;21057;-73
2022/10/11 00:39:17;;;;;;;8.53;3.37;;;;;;;9.70;100.00;100477.52;1705215;82;21108;-73
2022/10/11 00:41:44;;;;;;;6.08;3.00;;;;;;;9.70;100.00;100476.69;1713950;82;21513;-74
2022/10/11 00:44:22;;;;;;;5.45;3.10;;;;;;;9.72;100.00;100480.03;1724802;82;21096;-72
2022/10/11 00:47:05;;;;;;;4.58;3.15;;;;;;;9.75;100.00;100481.17;1720482;82;21041;-74
2022/10/11 00:49:37;;;;;;;8.78;4.00;;;;;;;9.72;100.00;100489.03;1701138;82;21128;-74
2022/10/11 00:52:35;;;;;;;5.78;3.60;;;;;;;9.72;100.00;100487.29;1690957;82;21062;-73
2022/10/11 00:55:12;;;;;;;6.00;3.37;;;;;;;9.68;100.00;100493.45;1702485;82;21156;-75
2022/10/11 00:57:43;;;;;;;4.72;3.37;;;;;;;9.65;100.00;100507.73;1711294;82;21120;-76
2022/10/11 01:00:13;;;;;;;4.50;2.80;;;;;;;9.72;100.00;100498.03;1701077;82;21061;-75
2022/10/11 01:02:42;;;;;;;7.30;3.20;;;;;;;9.71;100.00;100505.34;1703776;82;21584;-75
2022/10/11 01:05:13;;;;;;;3.80;2.80;;;;;;;9.68;100.00;100514.02;1719677;82;21529;-76
2022/10/11 01:07:42;;;;;;;5.30;3.17;;;;;;;9.66;100.00;100511.13;1716679;82;21535;-76
2022/10/11 01:10:10;;;;;;;4.80;2.55;;;;;;;9.67;100.00;100516.22;1729732;82;21037;-74
2022/10/11 01:12:44;;;;;;;4.90;2.90;;;;;;;9.68;100.00;100524.30;1692380;83;21104;-75
2022/10/11 01:15:29;;;;;;;3.67;2.45;;;;;;;9.70;100.00;100536.64;1718445;82;21061;-75
2022/10/11 01:18:24;;;;;;;3.47;2.40;;;;;;;9.67;100.00;100535.49;1722780;82;21057;-74
2022/10/11 01:21:02;;;;;;;9.70;4.00;;;;;;;9.64;100.00;100542.02;1703646;82;21061;-76
2022/10/11 01:23:38;;;;;;;7.53;3.60;;;;;;;9.64;100.00;100549.73;1709907;82;21022;-75
2022/10/11 01:26:22;;;;;;;7.12;2.98;;;;;;;9.62;100.00;100552.81;1709007;82;21026;-75
2022/10/11 01:29:10;;;;;;;5.85;3.27;;;;;;;9.61;100.00;100560.98;1682423;82;21081;-75
2022/10/11 01:31:52;;;;;;;6.00;3.10;;;;;;;9.59;100.00;100565.77;1709869;82;21072;-76
2022/10/11 01:34:26;;;;;;;7.62;3.00;;;;;;;9.59;100.00;100573.48;1714959;82;21022;-75
2022/10/11 01:37:13;;;;;;;7.42;3.30;;;;;;;9.58;100.00;100580.36;1722349;82;21038;-75
2022/10/11 01:39:51;;;;;;;7.65;2.98;;;;;;;9.59;100.00;100587.61;1723982;82;21054;-76
2022/10/11 01:42:20;;;;;;;13.48;2.83;;;;;;;9.57;100.00;100590.27;1699187;82;21061;-76
2022/10/11 01:44:50;;;;;;;6.10;3.10;;;;;;;9.59;100.00;100601.75;1735285;82;21117;-75
2022/10/11 01:47:21;;;;;;;5.75;3.35;;;;;;;9.58;100.00;100597.52;1704892;82;21089;-77
2022/10/11 01:49:57;;;;;;;6.20;2.72;;;;;;;9.52;100.00;100609.33;1708620;82;21065;-76
2022/10/11 01:52:28;;;;;;;4.78;2.80;;;;;;;9.55;100.00;100605.34;1730327;82;21509;-75
2022/10/11 01:55:10;;;;;;;6.33;2.50;;;;;;;9.50;100.00;100605.97;1706302;82;21638;-75
2022/10/11 01:57:57;;;;;;;6.65;3.02;;;;;;;9.48;100.00;100607.77;1696650;82;21089;-76
2022/10/11 02:00:30;;;;;;;4.35;2.85;;;;;;;9.46;100.00;100622.41;1721550;82;21140;-77
2022/10/11 02:03:31;;;;;;;5.47;2.62;;;;;;;9.45;100.00;100625.85;1694433;82;21533;-77
2022/10/11 02:06:03;;;;;;;6.80;2.77;;;;;;;9.46;100.00;100613.41;1698271;82;21533;-74
2022/10/11 02:08:54;;;;;;;7.30;2.80;;;;;;;9.48;100.00;100624.47;1731175;82;21541;-76
2022/10/11 02:11:33;;;;;;;7.65;2.95;;;;;;;9.45;100.00;100619.00;1729469;82;21538;-75
2022/10/11 02:14:13;;;;;;;6.97;2.92;;;;;;;9.44;100.00;100619.89;1715553;82;21038;-76
2022/10/11 02:16:48;;;;;;;4.60;2.90;;;;;;;9.42;100.00;100625.08;1695066;83;21104;-76
2022/10/11 02:19:19;;;;;;;5.97;2.92;;;;;;;9.41;100.00;100624.70;1712536;83;21120;-75
2022/10/11 02:21:52;;;;;;;6.50;2.72;;;;;;;9.43;100.00;100615.66;1716870;82;21042;-77
2022/10/11 02:24:26;;;;;;;9.13;3.00;;;;;;;9.41;100.00;100608.00;1722894;82;21094;-74
2022/10/11 02:26:56;;;;;;;10.48;4.58;;;;;;;9.42;100.00;100620.39;1723720;82;21073;-74
2022/10/11 02:29:26;;;;;;;24.57;9.15;;;;;;;9.36;100.00;100615.02;1687444;83;21060;-72
2022/10/11 02:31:56;;;;;;;11.55;4.90;;;;;;;9.34;100.00;100603.14;1713152;82;21049;-71
2022/10/11 02:34:40;;;;;;;8.35;4.55;;;;;;;9.23;100.00;100613.37;1709483;82;21049;-73
2022/10/11 02:37:54;;;;;;;8.00;4.78;;;;;;;9.15;100.00;100614.55;1712155;83;21033;-72
2022/10/11 02:40:38;;;;;;;7.12;4.00;;;;;;;9.03;100.00;100613.26;1706486;82;21070;-72
2022/10/11 02:43:25;;;;;;;6.87;4.30;;;;;;;9.03;100.00;100595.28;1713707;82;21168;-72
2022/10/11 02:45:57;;;;;;;6.20;4.08;;;;;;;9.01;100.00;100600.47;1680290;84;21558;-73
2022/10/11 02:48:28;;;;;;;6.37;4.08;;;;;;;8.99;100.00;100606.56;1658810;85;21059;-73
2022/10/11 02:50:57;;;;;;;7.55;4.20;;;;;;;9.03;100.00;100594.83;1664100;85;21062;-73
2022/10/11 02:53:27;;;;;;;5.80;4.00;;;;;;;9.01;100.00;100594.05;1654249;85;21054;-73
2022/10/11 02:55:55;;;;;;;6.37;3.90;;;;;;;9.00;100.00;100587.25;1719564;82;21050;-71
2022/10/11 02:58:23;;;;;;;6.10;4.17;;;;;;;8.96;100.00;100584.41;1730191;82;21100;-73
2022/10/11 03:00:51;;;;;;;5.37;3.62;;;;;;;8.98;100.00;100585.19;1727233;82;21043;-73
2022/10/11 03:03:17;;;;;;;7.00;3.33;;;;;;;8.92;100.00;100577.71;1735923;82;21116;-74
2022/10/11 03:05:44;;;;;;;9.05;4.10;;;;;;;8.88;100.00;100590.69;1716008;82;21163;-73
2022/10/11 03:08:15;;;;;;;8.08;3.55;;;;;;;8.88;100.00;100575.28;1714962;82;22155;-74
2022/10/11 03:10:42;;;;;;;3.33;3.02;;;;;;;8.90;100.00;100587.20;1715613;82;21068;-74
2022/10/11 03:13:10;;;;;;;5.25;2.95;;;;;;;8.97;100.00;100583.50;1703584;82;21676;-73
2022/10/11 03:15:38;;;;;;;7.83;3.72;;;;;;;8.93;100.00;100589.64;1713626;83;21139;-72
2022/10/11 03:18:05;;;;;;;4.80;3.12;;;;;;;9.02;100.00;100588.46;1713627;82;21093;-72
2022/10/11 03:20:32;;;;;;;7.58;3.30;;;;;;;8.96;100.00;100597.67;1699188;82;21116;-72
2022/10/11 03:22:59;;;;;;;4.95;3.12;;;;;;;8.97;100.00;100595.05;1718827;82;21006;-71
2022/10/11 03:25:27;;;;;;;4.58;3.40;;;;;;;9.00;100.00;100606.94;1692111;83;21077;-72
2022/10/11 03:27:54;;;;;;;6.95;3.30;;;;;;;9.02;100.00;100612.43;1722103;82;21077;-70
2022/10/11 03:30:22;;;;;;;9.38;4.80;;;;;;;8.98;100.00;100613.44;1706242;82;21576;-72
2022/10/11 03:32:49;;;;;;;14.23;6.58;;;;;;;9.02;100.00;100611.14;1698240;82;21053;-71
2022/10/11 03:35:17;;;;;;;13.30;5.78;;;;;;;9.04;100.00;100613.63;1689277;83;21576;-71
2022/10/11 03:37:44;;;;;;;13.48;5.37;;;;;;;9.02;100.00;100615.00;1702332;82;21089;-71
2022/10/11 03:40:13;;;;;;;19.35;7.72;;;;;;;8.98;100.00;100621.14;1710292;82;21486;-71
2022/10/11 03:42:40;;;;;;;14.40;6.80;;;;;;;8.98;100.00;100617.28;1735756;82;21144;-72
2022/10/11 03:45:09;;;;;;;10.80;5.50;;;;;;;8.99;100.00;100625.36;1721380;82;21050;-75
2022/10/11 03:47:38;;;;;;;6.80;4.37;;;;;;;8.99;100.00;100641.22;1700055;82;21541;-73
2022/10/11 03:50:07;;;;;;;8.23;3.95;;;;;;;8.94;100.00;100628.56;1722160;82;21085;-73
2022/10/11 03:52:34;;;;;;;7.90;4.10;;;;;;;8.93;100.00;100632.45;1722229;82;21674;-71
2022/10/11 03:55:01;;;;;;;7.08;4.35;;;;;;;8.93;100.00;100628.15;1721960;82;21073;-71
2022/10/11 03:57:29;;;;;;;5.67;3.70;;;;;;;8.91;100.00;100633.78;1716633;82;21134;-72
2022/10/11 03:59:56;;;;;;;6.70;3.33;;;;;;;8.91;100.00;100638.92;1709771;82;21175;-74
2022/10/11 04:02:24;;;;;;;4.20;3.27;;;;;;;8.97;100.00;100639.98;1687993;83;21081;-74
2022/10/11 04:04:51;;;;;;;4.10;3.10;;;;;;;8.99;100.00;100635.63;1713726;82;21552;-74
2022/10/11 04:07:18;;;;;;;5.70;3.10;;;;;;;8.95;100.00;100636.63;1727139;82;21477;-75
2022/10/11 04:09:45;;;;;;;6.53;3.27;;;;;;;8.98;100.00;100659.65;1701535;82;21148;-74
2022/10/11 04:12:13;;;;;;;7.72;3.10;;;;;;;8.99;100.00;100647.19;1694837;82;21053;-74
2022/10/11 04:14:40;;;;;;;4.47;2.90;;;;;;;9.02;100.00;100664.20;1714426;82;21057;-75
2022/10/11 04:17:07;;;;;;;5.92;3.10;;;;;;;8.97;100.00;100668.69;1730905;82;21062;-72
2022/10/11 04:19:37;;;;;;;6.28;3.15;;;;;;;8.98;100.00;100670.34;1714943;82;21140;-73
2022/10/11 04:22:04;;;;;;;5.00;2.70;;;;;;;8.98;100.00;100664.78;1696887;82;21094;-72
2022/10/11 04:24:33;;;;;;;7.72;3.42;;;;;;;8.92;100.00;100677.84;1689904;83;21058;-73
2022/10/11 04:27:00;;;;;;;5.33;3.02;;;;;;;8.96;100.00;100674.27;1704320;82;21074;-71
2022/10/11 04:29:27;;;;;;;6.60;3.33;;;;;;;9.01;100.00;100680.52;1719400;82;21517;-72
2022/10/11 04:31:54;;;;;;;4.62;2.98;;;;;;;8.98;100.00;100684.04;1704750;82;21171;-72
2022/10/11 04:34:22;;;;;;;7.30;2.70;;;;;;;8.98;100.00;100686.61;1719001;82;21084;-72
2022/10/11 04:36:49;;;;;;;4.62;3.20;;;;;;;8.96;100.00;100693.52;1699868;82;21022;-73
2022/10/11 04:39:17;;;;;;;5.35;3.12;;;;;;;9.03;100.00;100688.55;1715538;82;21105;-74
2022/10/11 04:41:43;;;;;;;4.30;2.80;;;;;;;8.93;100.00;100696.64;1729735;82;21104;-72
2022/10/11 04:44:11;;;;;;;8.40;3.15;;;;;;;9.00;100.00;100694.23;1729758;82;21156;-73
2022/10/11 04:46:37;;;;;;;6.87;3.08;;;;;;;8.94;100.00;100700.44;1706374;82;21527;-73
2022/10/11 04:49:05;;;;;;;5.25;3.30;;;;;;;9.02;100.00;100703.58;1712006;82;21540;-74
2022/10/11 04:51:32;;;;;;;8.05;3.80;;;;;;;9.10;100.00;100712.73;1690515;82;21100;-74
2022/10/11 04:53:59;;;;;;;9.83;4.00;;;;;;;9.06;100.00;100714.56;1733621;82;21042;-74
2022/10/11 04:56:27;;;;;;;5.35;3.62;;;;;;;9.22;100.00;100718.73;1724423;82;21101;-75
2022/10/11 04:58:55;;;;;;;7.20;3.25;;;;;;;9.27;100.00;100720.70;1744640;81;21037;-74
2022/10/11 05:01:27;;;;;;;6.53;3.25;;;;;;;9.29;100.00;100735.62;1740172;81;21396;-75
2022/10/11 05:03:54;;;;;;;6.00;3.37;;;;;;;9.33;100.00;100759.02;1744358;81;21024;-75
2022/10/11 05:06:21;;;;;;;5.50;2.92;;;;;;;9.51;100.00;100763.10;1733206;81;21008;-75
2022/10/11 05:08:48;;;;;;;5.78;2.92;;;;;;;9.65;100.00;100785.33;1739524;81;21016;-74
2022/10/11 05:11:17;;;;;;;6.03;2.92;;;;;;;9.63;100.00;100799.96;1737714;81;21032;-74
2022/10/11 05:13:46;;;;;;;4.92;2.87;;;;;;;9.68;100.00;100806.22;1734678;81;21095;-74
2022/10/11 05:16:14;;;;;;;5.67;2.75;;;;;;;9.73;100.00;100820.59;1722597;82;21032;-75
2022/10/11 05:18:42;;;;;;;4.47;2.80;;;;;;;9.72;100.00;100836.89;1736681;81;21063;-75
2022/10/11 05:21:23;;;;;;;7.97;3.10;;;;;;;9.82;100.00;100838.24;1732608;82;21425;-77
2022/10/11 05:23:54;;;;;;;5.33;3.17;;;;;;;9.88;100.00;100852.62;1731521;81;21539;-77
2022/10/11 05:26:23;;;;;;;5.30;3.10;;;;;;;9.98;100.00;100859.11;1739535;81;21085;-77
2022/10/11 05:28:51;;;;;;;7.25;3.02;;;;;;;9.99;100.00;100868.48;1740134;81;21088;-78
2022/10/11 05:31:19;;;;;;;5.42;3.50;;;;;;;9.89;100.00;100889.00;1739793;81;21480;-77
2022/10/11 05:33:47;;;;;;;7.72;3.22;;;;;;;10.00;100.00;100897.64;1731403;81;21066;-75
2022/10/11 05:36:15;;;;;;;6.37;3.50;;;;;;;9.87;100.00;100909.23;1732930;81;21110;-77
2022/10/11 05:38:43;;;;;;;4.60;2.90;;;;;;;9.94;100.00;100912.83;1732671;81;21562;-76
2022/10/11 05:41:13;;;;;;;4.90;2.87;;;;;;;10.01;100.00;100915.56;1716656;82;21038;-77
2022/10/11 05:43:41;;;;;;;5.58;2.35;;;;;;;10.02;100.00;100938.30;1728210;82;21602;-76
2022/10/11 05:46:09;;;;;;;6.08;2.70;;;;;;;10.01;100.00;100929.71;1736852;82;21590;-76
2022/10/11 05:48:36;;;;;;;6.75;3.00;;;;;;;9.91;100.00;100945.52;1727142;82;21093;-76
2022/10/11 05:51:08;;;;;;;7.33;2.90;;;;;;;9.85;100.00;100947.85;1732934;82;21000;-76
2022/10/11 05:53:38;;;;;;;3.62;2.70;;;;;;;9.89;100.00;100944.28;1725433;82;21054;-77
2022/10/11 05:56:14;;;;;;;3.95;2.72;;;;;;;9.70;100.00;100967.22;1728067;82;21071;-76
2022/10/11 05:58:41;;;;;;;3.77;2.67;;;;;;;9.77;100.00;100965.27;1725965;81;21588;-76
2022/10/11 06:01:22;;;;;;;5.45;2.72;;;;;;;9.68;100.00;100965.14;1739681;81;21028;-77
2022/10/11 06:03:50;;;;;;;4.50;3.00;;;;;;;9.77;100.00;100967.42;1699693;82;21112;-75
2022/10/11 06:06:18;;;;;;;7.42;3.12;;;;;;;9.80;100.00;100976.75;1730145;82;21521;-78
2022/10/11 06:08:46;;;;;;;5.50;2.92;;;;;;;9.80;100.00;100990.89;1702123;82;21052;-75
2022/10/11 06:11:20;;;;;;;8.75;2.87;;;;;;;9.81;100.00;100984.42;1710264;82;21587;-73
2022/10/11 06:13:51;;;;;;;3.95;2.70;;;;;;;9.91;100.00;100986.67;1696843;82;21089;-74
2022/10/11 06:16:17;;;;;;;7.47;2.95;;;;;;;9.90;100.00;100989.69;1722710;82;21033;-73
2022/10/11 06:18:46;;;;;;;4.00;2.80;;;;;;;9.98;100.00;100997.98;1711428;82;21038;-74
2022/10/11 06:21:14;;;;;;;7.70;2.95;;;;;;;10.07;100.00;100998.11;1691151;82;21145;-74
2022/10/11 06:23:41;;;;;;;6.67;3.08;;;;;;;10.06;100.00;101000.31;1702278;82;21049;-74
2022/10/11 06:26:10;;;;;;;7.22;2.77;;;;;;;10.16;100.00;101005.98;1709446;82;21572;-73
2022/10/11 06:28:37;;;;;;;8.63;3.47;;;;;;;10.27;100.00;101005.15;1720035;82;21085;-73
2022/10/11 06:31:05;;;;;;;7.80;2.83;;;;;;;10.33;100.00;101007.54;1735535;82;21537;-73
2022/10/11 06:33:34;;;;;;;8.18;2.85;;;;;;;10.42;100.00;101010.23;1736125;82;21057;-74
2022/10/11 06:36:05;;;;;;;5.87;2.90;;;;;;;10.52;100.00;101018.47;1707584;82;21493;-73
2022/10/11 06:38:32;;;;;;;8.38;3.12;;;;;;;10.55;100.00;101030.79;1708073;82;22045;-74
2022/10/11 06:41:19;;;;;;;5.25;2.65;;;;;;;10.62;100.00;101036.13;1699403;82;21081;-75
2022/10/11 06:43:48;;;;;;;4.15;3.10;;;;;;;10.77;100.00;101031.32;1701658;82;21054;-73
2022/10/11 06:46:17;;;;;;;4.03;2.40;;;;;;;10.85;100.00;101040.03;1718571;82;21018;-74
2022/10/11 06:48:46;;;;;;;7.22;2.70;;;;;;;10.91;100.00;101057.83;1726937;82;21093;-73
2022/10/11 06:51:17;;;;;;;6.30;2.62;;;;;;;10.76;100.00;101062.64;1724098;82;21033;-74
2022/10/11 06:53:50;;;;;;;4.80;2.80;;;;;;;10.83;100.00;101066.69;1691546;82;21057;-73
2022/10/11 06:56:18;;;;;;;4.40;2.95;;;;;;;10.87;100.00;101073.00;1723313;83;21601;-74
2022/10/11 06:58:46;;;;;;;4.90;2.70;;;;;;;11.01;100.00;101076.78;1736065;82;21077;-72
2022/10/11 07:01:17;;;;;;;5.40;2.55;;;;;;;10.89;100.00;101081.09;1695663;82;21093;-74
2022/10/11 07:03:44;;;;;;;6.35;2.60;;;;;;;10.88;100.00;101077.27;1709167;82;21100;-73
2022/10/11 07:06:18;;;;;;;4.33;2.55;;;;;;;11.01;100.00;101078.52;1713643;82;21010;-73
2022/10/11 07:08:46;;;;;;;3.70;2.40;;;;;;;10.87;100.00;101086.74;1693477;83;21081;-73
2022/10/11 07:11:21;;;;;;;4.87;2.98;;;;;;;10.63;100.00;101101.33;1700645;82;21073;-74
2022/10/11 07:13:54;;;;;;;4.60;2.60;;;;;;;10.57;100.00;101088.67;1727047;82;21042;-74
2022/10/11 07:16:24;;;;;;;5.60;2.62;;;;;;;10.63;100.00;101094.44;1704082;82;21061;-73
2022/10/11 07:18:54;;;;;;;5.92;2.67;;;;;;;10.70;100.00;101089.07;1711934;82;21029;-74
2022/10/11 07:21:21;;;;;;;8.83;3.37;;;;;;;10.79;100.00;101098.60;1736099;82;21304;-74
2022/10/11 07:23:49;;;;;;;6.95;2.90;;;;;;;10.97;100.00;101089.38;1690289;82;21151;-73
2022/10/11 07:26:18;;;;;;;5.62;3.00;;;;;;;11.16;100.00;101092.11;1688580;82;21049;-72
2022/10/11 07:28:46;;;;;;;6.00;3.08;;;;;;;11.22;100.00;101098.32;1683873;84;21018;-73
2022/10/11 07:31:17;;;;;;;4.35;2.75;;;;;;;11.09;100.00;101107.84;1688365;83;21101;-72
2022/10/11 07:33:45;;;;;;;4.97;3.00;;;;;;;11.13;100.00;101095.23;1720877;82;21096;-73
2022/10/11 07:36:12;;;;;;;5.50;3.02;;;;;;;11.26;100.00;101092.61;1709322;82;21038;-73
2022/10/11 07:38:41;;;;;;;5.45;3.05;;;;;;;11.20;100.00;101109.14;1706915;82;21077;-72
2022/10/11 07:41:08;;;;;;;3.87;3.02;;;;;;;11.28;100.00;101101.13;1735126;82;21029;-74
2022/10/11 07:43:37;;;;;;;4.75;3.05;;;;;;;11.35;100.00;101097.86;1715681;82;21576;-75
2022/10/11 07:46:04;;;;;;;5.80;2.83;;;;;;;11.40;100.00;101101.95;1724958;82;21058;-73
2022/10/11 07:48:35;;;;;;;6.00;3.10;;;;;;;11.51;100.00;101095.08;1731917;82;21076;-73
2022/10/11 07:51:17;;;;;;;5.90;3.15;;;;;;;11.69;100.00;101099.15;1692418;82;21600;-73
2022/10/11 07:53:48;;;;;;;5.55;2.77;;;;;;;11.82;100.00;101096.03;1690939;83;21089;-73
2022/10/11 07:56:19;;;;;;;4.33;3.10;;;;;;;11.86;100.00;101090.73;1727268;82;21564;-73
2022/10/11 07:58:58;;;;;;;4.60;2.90;;;;;;;11.89;100.00;101095.36;1707475;82;21089;-73
2022/10/11 08:01:27;;;;;;;3.70;2.90;;;;;;;12.00;100.00;101092.33;1725182;83;21061;-73
2022/10/11 08:03:58;;;;;;;6.30;3.00;;;;;;;12.05;100.00;101091.71;1719906;82;21033;-73
2022/10/11 08:06:31;;;;;;;6.30;2.70;;;;;;;12.10;100.00;101091.52;1704250;82;21029;-72
2022/10/11 08:09:00;;;;;;;4.30;2.87;;;;;;;12.17;100.00;101101.53;1710690;82;21065;-75
2022/10/11 08:11:32;;;;;;;6.35;3.05;;;;;;;12.37;100.00;101090.38;1693111;82;21517;-73
2022/10/11 08:14:03;;;;;;;4.70;2.90;;;;;;;12.30;100.00;101103.14;1716139;82;21030;-73
2022/10/11 08:16:31;;;;;;;5.28;3.30;;;;;;;12.17;100.00;101107.98;1715992;82;21533;-73
2022/10/11 08:19:00;;;;;;;5.12;2.95;;;;;;;12.35;100.00;101097.34;1716880;82;21058;-74
2022/10/11 08:21:26;;;;;;;6.58;2.87;;;;;;;12.47;100.00;101102.88;1712603;82;21084;-73
2022/10/11 08:23:54;;;;;;;4.37;2.83;;;;;;;12.52;100.00;101102.25;1719443;82;21010;-73
2022/10/11 08:26:21;;;;;;;7.00;2.55;;;;;;;12.45;100.00;101113.30;1707230;82;21647;-73
2022/10/11 08:28:49;;;;;;;3.40;2.85;;;;;;;12.54;100.00;101115.93;1704119;82;21113;-72
2022/10/11 08:31:16;;;;;;;4.70;3.00;;;;;;;12.67;100.00;101110.61;1701312;82;21089;-75
2022/10/11 08:33:43;;;;;;;4.95;2.90;;;;;;;12.58;100.00;101124.77;1695046;82;21557;-74
2022/10/11 08:36:12;;;;;;;4.33;2.60;;;;;;;12.60;100.00;101120.38;1697893;82;21007;-73
2022/10/11 08:38:40;;;;;;;4.60;2.95;;;;;;;12.69;100.00;101124.76;1683720;84;21022;-73
2022/10/11 08:41:49;;;;;;;3.77;2.80;;;;;;;12.87;100.00;101125.25;1692959;83;21518;-74
2022/10/11 08:44:39;;;;;;;4.53;2.72;;;;;;;12.93;100.00;101121.10;1692787;83;21049;-71
2022/10/11 08:47:26;;;;;;;3.22;2.47;;;;;;;13.05;100.00;101118.43;1699987;82;21569;-73
2022/10/11 08:49:55;;;;;;;3.47;2.92;;;;;;;13.07;100.00;101123.54;1700182;82;21723;-73
2022/10/11 08:52:54;;;;;;;4.03;2.65;;;;;;;13.18;100.00;101127.33;1707933;82;21671;-73
2022/10/11 08:55:43;;;;;;;2.95;2.52;;;;;;;13.34;100.00;101124.92;1712550;82;21073;-74
2022/10/11 08:58:18;;;;;;;4.42;2.70;;;;;;;13.41;100.00;101128.05;1709208;82;21057;-74
2022/10/11 09:00:49;;;;;;;4.08;2.45;;;;;;;13.40;100.00;101132.40;1710271;82;21108;-76
2022/10/11 09:03:24;;;;;;;5.62;2.90;;;;;;;13.64;100.00;101124.39;1693241;82;21076;-74
2022/10/11 09:06:06;;;;;;;4.95;2.45;;;;;;;13.54;100.00;101139.49;1709446;82;21569;-74
2022/10/11 09:09:21;;;;;;;5.08;2.60;;;;;;;13.62;100.00;101127.07;1736539;81;21048;-75
2022/10/11 09:12:02;;;;;;;5.12;2.90;;;;;;;13.84;100.00;101124.74;1747478;81;21495;-76
2022/10/11 09:14:56;;;;;;;6.03;2.65;;;;;;;13.83;100.00;101125.20;1754685;81;21475;-75
2022/10/11 09:17:38;;;;;;;5.53;2.43;;;;;;;13.91;100.00;101130.02;1749364;81;21508;-76
2022/10/11 09:20:57;;;;;;;3.70;2.45;;;;;;;14.05;100.00;101124.61;1744793;81;21047;-74
2022/10/11 09:23:53;;;;;;;5.15;2.52;;;;;;;14.03;100.00;101130.72;1748541;81;21031;-75
2022/10/11 09:26:34;;;;;;;4.80;2.52;;;;;;;13.89;100.00;101138.75;1726598;81;21056;-75
2022/10/11 09:29:26;;;;;;;2.80;2.50;;;;;;;13.90;100.00;101147.73;1713672;81;21000;-75
2022/10/11 09:31:56;;;;;;;4.97;2.67;;;;;;;13.89;100.00;101139.61;1706924;81;21041;-73
2022/10/11 09:34:31;;;;;;;4.17;2.67;;;;;;;13.99;100.00;101136.09;1716572;81;21083;-74
2022/10/11 09:37:08;;;;;;;5.95;2.62;;;;;;;14.12;100.00;101138.48;1719906;82;21113;-74
2022/10/11 09:39:38;;;;;;;7.85;2.80;;;;;;;14.19;100.00;101133.41;1711495;82;21053;-76
2022/10/11 09:42:09;;;;;;;3.30;2.40;;;;;;;14.15;100.00;101145.25;1751837;81;21099;-74
2022/10/11 09:44:40;;;;;;;4.20;2.52;;;;;;;14.00;100.00;101135.20;1755045;81;21075;-74
2022/10/11 09:47:19;;;;;;;6.30;2.40;;;;;;;14.21;100.00;101136.75;1758572;81;21495;-75
2022/10/11 09:49:55;;;;;;;5.70;2.92;;;;;;;14.18;100.00;101133.47;1760097;81;21036;-74
2022/10/11 09:52:23;;;;;;;5.75;2.95;;;;;;;14.29;100.00;101131.64;1743041;81;21000;-74
2022/10/11 09:55:01;;;;;;;7.37;3.42;;;;;;;14.45;100.00;101132.55;1759336;80;21047;-74
2022/10/11 09:57:33;;;;;;;4.92;2.72;;;;;;;14.44;100.00;101139.95;1739093;81;21072;-74
2022/10/11 10:00:15;;;;;;;6.72;3.30;;;;;;;14.28;100.00;101141.16;1761020;81;21141;-74
2022/10/11 10:02:54;;;;;;;6.65;2.92;;;;;;;14.41;100.00;101138.33;1753472;81;21028;-74
2022/10/11 10:05:32;;;;;;;4.33;2.22;;;;;;;14.50;100.00;101157.77;1762814;81;21523;-74
2022/10/11 10:08:10;;;;;;;4.72;2.30;;;;;;;14.37;100.00;101145.04;1757916;81;21039;-74
2022/10/11 10:10:44;;;;;;;4.05;2.60;;;;;;;14.54;100.00;101148.93;1758933;81;21046;-74
2022/10/11 10:13:20;;;;;;;;;;;;;;;14.49;100.00;101141.83;1756225;81;21506;-74
2022/10/11 10:15:53;;;;;;;4.40;2.30;;;;;;;14.55;100.00;101147.17;1757645;81;20109;-74
2022/10/11 10:18:29;;;;;;;6.20;2.37;;;;;;;14.78;100.00;101136.52;1760079;81;21032;-75
2022/10/11 10:20:59;;;;;;;3.98;2.40;;;;;;;14.73;100.00;101159.69;1755372;81;21033;-74
2022/10/11 10:23:33;;;;;;;6.08;2.15;;;;;;;14.82;100.00;101145.80;1760251;81;21054;-74
2022/10/11 10:26:19;;;;;;;;;;;;;;;14.78;100.00;101154.66;1765835;81;21012;-75
2022/10/11 10:29:06;;;;;;;4.28;2.42;;;;;;;14.87;100.00;101148.62;1755849;81;20385;-75
2022/10/11 10:31:51;;;;;;;3.02;2.25;;;;;;;14.65;100.00;101154.89;1757541;80;21500;-75
2022/10/11 10:34:30;;;;;;;4.50;2.08;;;;;;;14.66;100.00;101150.53;1764200;81;21026;-75
2022/10/11 10:37:26;;;;;;;4.42;2.37;;;;;;;14.57;100.00;101152.68;1718475;81;21032;-75
2022/10/11 10:40:25;;;;;;;4.60;2.25;;;;;;;14.60;100.00;101164.20;1759071;81;21032;-74
2022/10/11 10:42:54;;;;;;;7.47;2.75;;;;;;;14.45;100.00;101158.91;1752601;80;21173;-74
2022/10/11 10:45:26;;;;;;;3.10;2.33;;;;;;;14.68;100.00;101157.77;1760750;81;21530;-75
2022/10/11 10:48:11;;;;;;;5.03;2.37;;;;;;;14.81;100.00;101154.48;1757936;81;21035;-75
2022/10/11 10:51:07;;;;;;;3.80;2.33;;;;;;;15.17;100.00;101153.48;1751909;81;21579;-73
2022/10/11 10:53:45;;;;;;;3.52;2.35;;;;;;;15.17;100.00;101155.25;1756943;81;21041;-75
2022/10/11 10:56:36;;;;;;;3.42;2.30;;;;;;;14.95;100.00;101161.55;1751367;81;21169;-74
2022/10/11 10:59:39;;;;;;;6.28;2.50;;;;;;;14.99;100.00;101164.36;1756791;81;21044;-74
2022/10/11 11:02:33;;;;;;;4.58;2.87;;;;;;;15.00;100.00;101168.64;1758736;81;21558;-74
2022/10/11 11:05:20;;;;;;;7.80;3.62;;;;;;;15.16;100.00;101161.34;1748825;81;21078;-74
2022/10/11 11:08:08;;;;;;;5.22;3.20;;;;;;;15.27;100.00;101145.20;1754551;80;21078;-74
2022/10/11 11:10:58;;;;;;;7.62;3.35;;;;;;;15.41;100.00;101149.21;1755760;80;21589;-74
2022/10/11 11:13:36;;;;;;;3.10;2.42;;;;;;;15.30;100.00;101157.55;1731252;81;21059;-74
2022/10/11 11:16:27;;;;;;;4.30;2.65;;;;;;;15.02;100.00;101162.92;1757260;80;21054;-74
2022/10/11 11:19:30;;;;;;;3.80;2.85;;;;;;;15.01;100.00;101156.05;1758849;81;21662;-74
2022/10/11 11:22:05;;;;;;;4.40;2.80;;;;;;;14.96;100.00;101155.90;1717270;81;21057;-74
2022/10/11 11:25:01;;;;;;;3.52;2.40;;;;;;;14.82;100.00;101167.83;1764270;81;21009;-74
2022/10/11 11:27:48;;;;;;;4.65;2.87;;;;;;;14.89;100.00;101167.52;1765080;81;21078;-74
2022/10/11 11:31:09;;;;;;;5.37;3.00;;;;;;;14.93;100.00;101158.20;1757233;81;21039;-73
2022/10/11 11:34:07;;;;;;;3.45;2.60;;;;;;;14.93;100.00;101155.61;1762353;80;21056;-75
2022/10/11 11:36:48;;;;;;;5.62;3.02;;;;;;;15.06;100.00;101165.34;1751848;81;21044;-75
2022/10/11 11:39:35;;;;;;;6.85;3.80;;;;;;;15.20;100.00;101160.25;1753115;80;21078;-75
2022/10/11 11:42:30;;;;;;;14.75;4.10;;;;;;;15.02;100.00;101160.33;1752557;81;21054;-74
2022/10/11 11:45:05;;;;;;;7.15;3.17;;;;;;;14.93;100.00;101155.61;1756425;81;21047;-75
2022/10/11 11:47:39;;;;;;;5.53;3.33;;;;;;;14.97;100.00;101159.72;1758417;80;21000;-74
2022/10/11 11:50:23;;;;;;;5.55;3.40;;;;;;;14.99;100.00;101168.25;1751340;81;21032;-75
2022/10/11 11:52:57;;;;;;;;;;;;;;;15.03;100.00;101168.94;1760188;80;21043;-74
2022/10/11 11:55:38;;;;;;;5.47;3.42;;;;;;;15.09;100.00;101166.02;1755494;81;20141;-75